Time;durP1;ratioP1;P1;durP2;ratioP2;P2;SDS_P1;SDS_P2;PMS_P1;PMS_P2;Temp;Humidity;BMP_temperature;BMP_pressure;BME280_temperature;BME280_humidity;BME280_pressure;Samples;Min_cycle;Max_cycle;Signal;HPM_P1;HPM_P2
2022/04/01 00:01:54;;;;;;;73.05;34.75;;;3.30;99.90;;;;;;5093005;28;20028;-59
2022/04/01 00:04:20;;;;;;;70.13;35.13;;;3.30;99.90;;;;;;5091689;28;20096;-59
2022/04/01 00:06:45;;;;;;;67.93;34.45;;;3.30;99.90;;;;;;5093295;28;20145;-59
2022/04/01 00:09:11;;;;;;;67.20;34.22;;;3.30;99.90;;;;;;5088549;28;20043;-58
2022/04/01 00:11:36;;;;;;;60.60;33.50;;;3.30;99.90;;;;;;5089492;28;20048;-60
2022/04/01 00:14:02;;;;;;;59.63;33.22;;;3.20;99.90;;;;;;5089656;28;20110;-58
2022/04/01 00:16:27;;;;;;;65.72;34.05;;;3.20;99.90;;;;;;5094819;28;20493;-58
2022/04/01 00:18:53;;;;;;;66.03;32.83;;;3.20;99.90;;;;;;5092722;28;20036;-59
2022/04/01 00:21:19;;;;;;;62.25;32.88;;;3.20;99.90;;;;;;5090815;28;20032;-58
2022/04/01 00:23:44;;;;;;;63.25;32.65;;;3.20;99.90;;;;;;5071150;28;20031;-59
2022/04/01 00:26:10;;;;;;;66.28;33.67;;;3.20;99.90;;;;;;5090807;28;20035;-57
2022/04/01 00:28:36;;;;;;;67.75;34.85;;;3.20;99.90;;;;;;5091599;28;20027;-60
2022/04/01 00:31:02;;;;;;;64.93;34.05;;;3.20;99.90;;;;;;5094987;28;20035;-61
2022/04/01 00:33:27;;;;;;;63.95;35.45;;;3.20;99.90;;;;;;5089971;28;20054;-57
2022/04/01 00:35:53;;;;;;;70.47;35.25;;;3.30;99.90;;;;;;5093761;28;20131;-58
2022/04/01 00:38:19;;;;;;;67.30;34.45;;;3.30;99.90;;;;;;5090334;28;20032;-59
2022/04/01 00:40:45;;;;;;;68.57;33.75;;;3.20;99.90;;;;;;5094442;28;20032;-59
2022/04/01 00:43:11;;;;;;;63.38;33.78;;;3.30;99.90;;;;;;5084898;28;20016;-59
2022/04/01 00:45:37;;;;;;;64.40;33.38;;;3.30;99.90;;;;;;5094751;28;20494;-58
2022/04/01 00:48:03;;;;;;;63.10;33.67;;;3.30;99.90;;;;;;5088683;28;20028;-58
2022/04/01 00:50:31;;;;;;;69.55;36.08;;;3.40;99.90;;;;;;5088859;28;20024;-58
2022/04/01 00:53:00;;;;;;;73.15;34.70;;;3.40;99.90;;;;;;5087460;28;20024;-57
2022/04/01 00:55:27;;;;;;;64.25;33.10;;;3.40;99.90;;;;;;5090075;28;20024;-59
2022/04/01 00:57:53;;;;;;;63.25;34.17;;;3.30;99.90;;;;;;5087380;28;20027;-57
2022/04/01 01:00:19;;;;;;;64.75;34.72;;;3.40;99.90;;;;;;5088638;28;20382;-59
2022/04/01 01:02:45;;;;;;;60.38;32.92;;;3.40;99.90;;;;;;5091273;28;20028;-58
2022/04/01 01:05:11;;;;;;;65.72;34.00;;;3.40;99.90;;;;;;5086529;28;20540;-58
2022/04/01 01:07:42;;;;;;;61.83;34.17;;;3.40;99.90;;;;;;5088597;28;21167;-58
2022/04/01 01:10:10;;;;;;;67.00;33.97;;;3.50;99.90;;;;;;5088488;28;20039;-60
2022/04/01 01:12:36;;;;;;;59.53;32.28;;;3.50;99.90;;;;;;5091528;28;20115;-59
2022/04/01 01:15:10;;;;;;;63.70;33.25;;;3.50;99.90;;;;;;5088383;28;20024;-60
2022/04/01 01:17:39;;;;;;;64.60;33.17;;;3.60;99.90;;;;;;5084705;28;20512;-60
2022/04/01 01:20:12;;;;;;;65.22;33.75;;;3.50;99.90;;;;;;5066977;28;20024;-60
2022/04/01 01:22:42;;;;;;;63.78;34.17;;;3.60;99.90;;;;;;5089678;28;20024;-60
2022/04/01 01:25:11;;;;;;;65.78;33.30;;;3.60;99.90;;;;;;5088379;28;20051;-59
2022/04/01 01:27:37;;;;;;;63.55;33.63;;;3.60;99.90;;;;;;5090590;28;20028;-60
2022/04/01 01:30:04;;;;;;;60.90;32.83;;;3.60;99.90;;;;;;5088936;28;20063;-60
2022/04/01 01:32:32;;;;;;;63.60;34.42;;;3.70;99.90;;;;;;5090933;28;20020;-59
2022/04/01 01:35:35;;;;;;;59.35;32.92;;;3.60;99.90;;;;;;5090254;28;20651;-59
2022/04/01 01:38:01;;;;;;;59.47;31.27;;;3.60;99.90;;;;;;5087457;28;20035;-58
2022/04/01 01:40:27;;;;;;;57.95;32.55;;;3.80;99.90;;;;;;5086066;28;20024;-60
2022/04/01 01:42:53;;;;;;;46.40;27.30;;;3.80;99.90;;;;;;5086090;28;20051;-59
2022/04/01 01:45:19;;;;;;;40.70;24.60;;;3.90;99.90;;;;;;5084000;28;20291;-59
2022/04/01 01:47:45;;;;;;;38.10;23.95;;;3.90;99.90;;;;;;5084126;28;20485;-59
2022/04/01 01:55:39;;;;;;;33.28;20.98;;;3.90;99.90;;;;;;5085743;28;20389;-60
2022/04/01 01:58:05;;;;;;;30.40;20.35;;;4.00;99.90;;;;;;5089731;28;20028;-60
2022/04/01 02:00:31;;;;;;;28.10;19.58;;;4.00;99.90;;;;;;5086043;28;20600;-60
2022/04/01 02:02:57;;;;;;;29.98;20.25;;;4.00;99.90;;;;;;5089852;28;20397;-60
2022/04/01 02:05:22;;;;;;;27.63;19.38;;;4.00;99.90;;;;;;5083860;28;20051;-60
2022/04/01 02:07:48;;;;;;;26.95;18.13;;;4.00;99.90;;;;;;5089030;28;20162;-58
2022/04/01 02:10:15;;;;;;;27.98;19.20;;;4.00;99.90;;;;;;5089827;28;20165;-59
2022/04/01 02:12:42;;;;;;;26.77;19.75;;;4.00;99.90;;;;;;5089095;28;20016;-57
2022/04/01 02:15:10;;;;;;;25.45;17.75;;;4.00;99.90;;;;;;5086189;28;20031;-58
2022/04/01 02:17:37;;;;;;;25.52;17.38;;;4.00;99.90;;;;;;5087454;28;20080;-60
2022/04/01 02:20:10;;;;;;;25.70;17.95;;;4.00;99.90;;;;;;5088260;28;20020;-60
2022/04/01 02:22:37;;;;;;;28.85;19.70;;;4.10;99.90;;;;;;5084624;28;20078;-60
2022/04/01 02:25:05;;;;;;;29.00;18.42;;;4.10;99.90;;;;;;5080675;28;20945;-60
2022/04/01 02:27:31;;;;;;;26.70;18.30;;;4.10;99.90;;;;;;5084878;28;20086;-60
2022/04/01 02:29:57;;;;;;;27.15;18.45;;;4.10;99.90;;;;;;5088468;28;20030;-57
2022/04/01 02:32:25;;;;;;;25.90;17.35;;;4.10;99.90;;;;;;5086912;28;20103;-58
2022/04/01 02:34:50;;;;;;;24.90;17.83;;;4.10;99.90;;;;;;5086908;28;20066;-58
2022/04/01 02:37:19;;;;;;;24.13;17.52;;;4.10;99.90;;;;;;5086021;28;20605;-60
2022/04/01 02:39:44;;;;;;;25.17;17.33;;;4.00;99.90;;;;;;5088510;28;20042;-56
2022/04/01 02:42:10;;;;;;;25.75;18.05;;;4.00;99.90;;;;;;5085667;28;20020;-60
2022/04/01 02:44:35;;;;;;;27.70;18.30;;;4.00;99.90;;;;;;5085135;28;20103;-59
2022/04/01 02:47:01;;;;;;;25.40;16.90;;;4.00;99.90;;;;;;5085873;28;20062;-58
2022/04/01 02:49:27;;;;;;;24.55;17.52;;;4.00;99.90;;;;;;5086985;28;20505;-58
2022/04/01 02:51:53;;;;;;;27.63;18.92;;;4.00;99.90;;;;;;5089095;28;20081;-63
2022/04/01 02:54:20;;;;;;;24.00;17.00;;;4.00;99.90;;;;;;5089841;28;20074;-59
2022/04/01 02:56:46;;;;;;;24.13;17.25;;;4.00;99.90;;;;;;5089202;28;20127;-62
2022/04/01 02:59:12;;;;;;;25.60;18.48;;;4.00;99.90;;;;;;5080055;28;20406;-60
2022/04/01 03:01:39;;;;;;;22.55;16.42;;;4.00;99.90;;;;;;5089699;28;20020;-60
2022/04/01 03:04:10;;;;;;;24.95;17.52;;;4.00;99.90;;;;;;5089200;28;20020;-62
2022/04/01 03:06:40;;;;;;;22.83;16.20;;;4.00;99.90;;;;;;5091021;28;20032;-59
2022/04/01 03:09:10;;;;;;;23.80;17.45;;;3.90;99.90;;;;;;5080986;28;20031;-60
2022/04/01 03:11:36;;;;;;;23.20;15.75;;;3.90;99.90;;;;;;5090007;28;20027;-59
2022/04/01 03:14:03;;;;;;;21.45;14.85;;;3.80;99.90;;;;;;5090209;28;20056;-62
2022/04/01 03:16:28;;;;;;;22.23;16.85;;;3.80;99.90;;;;;;5086019;28;20038;-63
2022/04/01 03:18:57;;;;;;;23.48;16.27;;;3.80;99.90;;;;;;5084948;28;20020;-61
2022/04/01 03:21:24;;;;;;;23.80;16.05;;;3.80;99.90;;;;;;5083043;28;20103;-60
2022/04/01 03:23:51;;;;;;;23.10;15.85;;;3.80;99.90;;;;;;5069730;28;20028;-59
2022/04/01 03:26:16;;;;;;;22.77;15.70;;;3.80;99.90;;;;;;5085151;28;20041;-60
2022/04/01 03:28:42;;;;;;;21.17;14.77;;;3.80;99.90;;;;;;5087101;28;20107;-61
2022/04/01 03:31:09;;;;;;;23.35;14.13;;;3.80;99.90;;;;;;5090591;28;20389;-60
2022/04/01 03:33:36;;;;;;;22.67;14.57;;;3.70;99.90;;;;;;5087384;28;20016;-60
2022/04/01 03:36:02;;;;;;;22.55;14.23;;;3.70;99.90;;;;;;5086191;28;20035;-61
2022/04/01 03:38:30;;;;;;;19.48;13.43;;;3.70;99.90;;;;;;5085114;28;20016;-60
2022/04/01 03:40:57;;;;;;;19.83;13.63;;;3.70;99.90;;;;;;5087292;28;20107;-61
2022/04/01 03:43:24;;;;;;;22.35;12.80;;;3.60;99.90;;;;;;5087957;28;20059;-60
2022/04/01 03:45:52;;;;;;;18.40;12.57;;;3.60;99.90;;;;;;5084528;28;20074;-58
2022/04/01 03:48:56;;;;;;;22.45;13.60;;;3.60;99.90;;;;;;5085395;28;20028;-59
2022/04/01 03:51:25;;;;;;;19.48;13.45;;;3.60;99.90;;;;;;5076391;28;20516;-61
2022/04/01 03:54:00;;;;;;;19.65;13.45;;;3.60;99.90;;;;;;5089314;28;20038;-61
2022/04/01 03:56:31;;;;;;;23.13;14.75;;;3.60;99.90;;;;;;5089289;28;20065;-62
2022/04/01 03:59:05;;;;;;;26.27;15.13;;;3.60;99.90;;;;;;5086801;28;20028;-61
2022/04/01 04:01:32;;;;;;;23.10;14.38;;;3.70;99.90;;;;;;5072083;28;20027;-60
2022/04/01 04:03:58;;;;;;;24.58;13.38;;;3.70;99.90;;;;;;5089058;28;20115;-60
2022/04/01 04:06:24;;;;;;;20.55;14.35;;;3.70;99.90;;;;;;5087915;28;20077;-59
2022/04/01 04:08:57;;;;;;;23.15;14.43;;;3.70;99.90;;;;;;5086085;28;20383;-59
2022/04/01 04:11:27;;;;;;;21.63;13.00;;;3.60;99.90;;;;;;5089012;28;20024;-61
2022/04/01 04:13:53;;;;;;;19.50;12.93;;;3.60;99.90;;;;;;5082264;28;20060;-60
2022/04/01 04:16:34;;;;;;;19.38;12.90;;;3.60;99.90;;;;;;5086319;28;20016;-61
2022/04/01 04:19:03;;;;;;;21.42;13.02;;;3.60;99.90;;;;;;5078633;28;20017;-60
2022/04/01 04:21:31;;;;;;;21.75;13.38;;;3.60;99.90;;;;;;5084078;28;20028;-61
2022/04/01 04:23:59;;;;;;;23.33;14.30;;;3.60;99.90;;;;;;5062938;28;20043;-60
2022/04/01 04:26:35;;;;;;;23.35;15.15;;;3.60;99.90;;;;;;5092854;28;20092;-60
2022/04/01 04:29:08;;;;;;;21.95;14.52;;;3.50;99.90;;;;;;5092189;28;20555;-58
2022/04/01 04:31:35;;;;;;;23.17;13.70;;;3.40;99.90;;;;;;5090342;28;20032;-60
2022/04/01 04:34:04;;;;;;;24.38;14.85;;;3.40;99.90;;;;;;5091507;28;20024;-56
2022/04/01 04:36:40;;;;;;;22.08;14.38;;;3.40;99.90;;;;;;5085056;28;20056;-61
2022/04/01 04:39:09;;;;;;;19.80;13.43;;;3.40;99.90;;;;;;5089940;28;20028;-61
2022/04/01 04:41:35;;;;;;;19.42;13.75;;;3.40;99.90;;;;;;5093251;28;20024;-58
2022/04/01 04:44:02;;;;;;;22.13;13.52;;;3.40;99.90;;;;;;5092226;28;20040;-60
2022/04/01 04:46:30;;;;;;;18.67;13.45;;;3.50;99.90;;;;;;5091731;28;20035;-59
2022/04/01 04:48:57;;;;;;;17.75;12.35;;;3.40;99.90;;;;;;5089686;28;20028;-60
2022/04/01 04:51:24;;;;;;;19.77;12.93;;;3.40;99.90;;;;;;5092994;28;20035;-59
2022/04/01 04:53:51;;;;;;;20.95;12.77;;;3.40;99.90;;;;;;5088411;28;20024;-61
2022/04/01 04:56:18;;;;;;;17.00;11.77;;;3.30;99.90;;;;;;5086205;28;20037;-59
2022/04/01 04:58:44;;;;;;;18.77;11.82;;;3.30;99.90;;;;;;5091881;28;20054;-60
2022/04/01 05:01:24;;;;;;;17.83;11.55;;;3.40;99.90;;;;;;5089871;28;20095;-61
2022/04/01 05:04:22;;;;;;;19.90;11.90;;;3.30;99.90;;;;;;5088435;28;20106;-58
2022/04/01 05:07:15;;;;;;;17.05;11.35;;;3.30;99.90;;;;;;5087417;28;20513;-59
2022/04/01 05:09:53;;;;;;;20.15;12.23;;;3.30;99.90;;;;;;5089587;28;20032;-59
2022/04/01 05:12:54;;;;;;;22.10;12.25;;;3.30;99.90;;;;;;5089592;28;20367;-59
2022/04/01 05:15:26;;;;;;;18.10;12.20;;;3.30;99.90;;;;;;5075574;28;20028;-60
2022/04/01 05:17:58;;;;;;;16.20;11.80;;;3.30;99.90;;;;;;5087149;28;20107;-62
2022/04/01 05:20:33;;;;;;;19.60;11.32;;;3.30;99.90;;;;;;5089535;28;20035;-60
2022/04/01 05:23:11;;;;;;;17.77;10.98;;;3.20;99.90;;;;;;5084908;28;20106;-61
2022/04/01 05:25:41;;;;;;;18.63;10.80;;;3.20;99.90;;;;;;5086236;28;20020;-60
2022/04/01 05:28:15;;;;;;;17.27;10.63;;;3.20;99.90;;;;;;5083814;28;20036;-60
2022/04/01 05:30:41;;;;;;;16.55;10.63;;;3.20;99.90;;;;;;5089771;28;20032;-60
2022/04/01 05:33:16;;;;;;;15.23;10.70;;;3.20;99.90;;;;;;5082911;28;20089;-60
2022/04/01 05:35:51;;;;;;;19.83;11.80;;;3.30;99.90;;;;;;5089961;28;20030;-59
2022/04/01 05:38:19;;;;;;;15.35;10.23;;;3.30;99.90;;;;;;5087480;28;20016;-58
2022/04/01 05:40:45;;;;;;;16.85;10.65;;;3.30;99.90;;;;;;5091987;28;20436;-59
2022/04/01 05:43:13;;;;;;;23.95;10.55;;;3.30;99.90;;;;;;5085499;28;20090;-58
2022/04/01 05:45:42;;;;;;;14.88;10.30;;;3.30;99.90;;;;;;5081050;28;20028;-58
2022/04/01 05:48:09;;;;;;;13.98;9.63;;;3.30;99.90;;;;;;5112877;22;20410;-59
2022/04/01 05:50:37;;;;;;;14.07;10.65;;;3.40;99.90;;;;;;5112029;28;20031;-59
2022/04/01 05:53:04;;;;;;;20.42;10.35;;;3.30;99.90;;;;;;5112048;28;20028;-59
2022/04/01 05:55:33;;;;;;;13.73;9.60;;;3.30;99.90;;;;;;5111652;28;20135;-59
2022/04/01 05:58:04;;;;;;;13.27;9.55;;;3.30;99.90;;;;;;5111562;28;20020;-59
2022/04/01 06:00:48;;;;;;;17.13;9.15;;;3.20;99.90;;;;;;5106686;28;20038;-58
2022/04/01 06:03:50;;;;;;;14.18;8.73;;;3.20;99.90;;;;;;5111955;28;20020;-59
2022/04/01 06:06:25;;;;;;;14.43;9.30;;;3.30;99.90;;;;;;5111751;28;20031;-59
2022/04/01 06:09:15;;;;;;;20.50;10.68;;;3.20;99.90;;;;;;5111862;28;20470;-58
2022/04/01 06:11:59;;;;;;;11.95;8.35;;;3.20;99.90;;;;;;5111728;28;20477;-58
2022/04/01 06:14:58;;;;;;;12.60;9.68;;;3.20;99.90;;;;;;5111383;28;20024;-59
2022/04/01 06:18:02;;;;;;;13.48;9.32;;;3.20;99.90;;;;;;5079250;28;20485;-57
2022/04/01 06:20:30;;;;;;;20.10;9.13;;;3.20;99.90;;;;;;5105746;28;20042;-54
2022/04/01 06:23:04;;;;;;;11.25;7.75;;;3.20;99.90;;;;;;5104578;28;20015;-59
2022/04/01 06:25:34;;;;;;;16.67;8.98;;;3.20;99.90;;;;;;5105597;28;20077;-60
2022/04/01 06:28:16;;;;;;;15.05;8.77;;;3.20;99.90;;;;;;5111538;28;20024;-59
2022/04/01 06:30:44;;;;;;;12.57;8.75;;;3.20;99.90;;;;;;5107893;28;20088;-59
2022/04/01 06:33:23;;;;;;;13.05;9.05;;;3.20;99.90;;;;;;5106910;28;20028;-59
2022/04/01 06:35:59;;;;;;;12.07;8.38;;;3.20;99.90;;;;;;5111306;28;20028;-60
2022/04/01 06:38:37;;;;;;;13.00;9.45;;;3.20;99.90;;;;;;5111356;28;20015;-57
2022/04/01 06:41:08;;;;;;;10.75;8.07;;;3.20;99.90;;;;;;5111227;28;20482;-57
2022/04/01 06:43:35;;;;;;;13.00;9.40;;;3.20;99.90;;;;;;5111589;28;20024;-54
2022/04/01 06:46:03;;;;;;;15.65;7.97;;;3.20;99.90;;;;;;5108935;28;20444;-58
2022/04/01 06:48:29;;;;;;;18.98;9.38;;;3.20;99.90;;;;;;5107124;28;20032;-59
2022/04/01 06:50:56;;;;;;;15.77;10.27;;;3.20;99.90;;;;;;5109966;28;20046;-57
2022/04/01 06:53:21;;;;;;;11.35;8.40;;;3.20;99.90;;;;;;5110603;28;20023;-61
2022/04/01 06:55:47;;;;;;;11.13;8.38;;;3.20;99.90;;;;;;5111003;28;20396;-58
2022/04/01 06:58:13;;;;;;;16.52;8.95;;;3.20;99.90;;;;;;5111092;28;20473;-57
2022/04/01 07:00:42;;;;;;;12.02;8.35;;;3.10;99.90;;;;;;5110064;28;20099;-58
2022/04/01 07:03:09;;;;;;;12.77;7.68;;;3.10;99.90;;;;;;5110683;28;20031;-57
2022/04/01 07:05:36;;;;;;;14.38;8.30;;;3.10;99.90;;;;;;5110124;28;20024;-58
2022/04/01 07:08:02;;;;;;;14.75;7.97;;;3.10;99.90;;;;;;5111358;28;20024;-57
2022/04/01 07:10:28;;;;;;;14.50;8.48;;;3.20;99.90;;;;;;5110820;28;20028;-57
2022/04/01 07:12:53;;;;;;;13.48;8.15;;;3.20;99.90;;;;;;5109733;28;20028;-57
2022/04/01 07:15:19;;;;;;;15.80;8.75;;;3.10;99.90;;;;;;5109034;28;20081;-58
2022/04/01 07:17:45;;;;;;;12.93;8.15;;;3.10;99.90;;;;;;5110690;28;20485;-59
2022/04/01 07:20:12;;;;;;;13.98;8.48;;;3.10;99.90;;;;;;5105109;28;20388;-53
2022/04/01 07:22:39;;;;;;;11.90;8.52;;;3.00;99.90;;;;;;5110257;28;20125;-58
2022/04/01 07:25:05;;;;;;;11.88;8.30;;;3.10;99.90;;;;;;5110182;28;20043;-55
2022/04/01 07:27:30;;;;;;;15.15;7.43;;;3.10;99.90;;;;;;5106802;28;20511;-58
2022/04/01 07:29:56;;;;;;;10.55;7.80;;;3.10;99.90;;;;;;5110357;28;20027;-59
2022/04/01 07:32:32;;;;;;;10.48;6.97;;;3.10;99.90;;;;;;5108805;28;20115;-59
2022/04/01 07:34:58;;;;;;;10.82;6.88;;;3.10;99.90;;;;;;5107804;28;20027;-61
2022/04/01 07:37:25;;;;;;;14.63;7.95;;;3.10;99.90;;;;;;5110749;28;20016;-58
2022/04/01 07:39:52;;;;;;;9.68;7.07;;;3.10;99.90;;;;;;5109940;28;20051;-59
2022/04/01 07:42:20;;;;;;;9.70;6.82;;;3.10;99.90;;;;;;5110218;28;20148;-57
2022/04/01 07:44:49;;;;;;;8.38;5.65;;;3.10;99.90;;;;;;5110063;28;20024;-57
2022/04/01 07:47:15;;;;;;;8.20;6.47;;;3.10;99.90;;;;;;5108548;28;20034;-56
2022/04/01 07:49:44;;;;;;;8.32;6.72;;;3.10;99.90;;;;;;5104091;28;20055;-57
2022/04/01 07:52:11;;;;;;;8.70;6.65;;;3.10;99.90;;;;;;5104297;28;20081;-55
2022/04/01 07:54:40;;;;;;;10.38;6.88;;;3.20;99.90;;;;;;5103194;28;20027;-58
2022/04/01 07:57:07;;;;;;;10.80;6.85;;;3.20;99.90;;;;;;5104968;28;20020;-58
2022/04/01 07:59:33;;;;;;;9.32;6.65;;;3.20;99.90;;;;;;5095939;28;20147;-60
2022/04/01 08:01:59;;;;;;;7.47;5.88;;;3.20;99.90;;;;;;5110288;28;20077;-60
2022/04/01 08:04:26;;;;;;;7.95;5.72;;;3.20;99.90;;;;;;5112209;28;20035;-58
2022/04/01 08:06:53;;;;;;;13.18;6.45;;;3.20;99.90;;;;;;5113437;28;20027;-57
2022/04/01 08:09:18;;;;;;;8.43;6.13;;;3.20;99.90;;;;;;5113900;28;20068;-56
2022/04/01 08:11:44;;;;;;;12.00;6.75;;;3.20;99.90;;;;;;5095830;28;20493;-54
2022/04/01 08:14:09;;;;;;;10.73;6.15;;;3.30;99.90;;;;;;5114227;28;20550;-53
2022/04/01 08:16:35;;;;;;;11.05;5.78;;;3.30;99.90;;;;;;5114013;28;20023;-57
2022/04/01 08:19:02;;;;;;;8.60;6.00;;;3.30;99.90;;;;;;5114026;28;20032;-59
2022/04/01 08:21:28;;;;;;;9.20;6.28;;;3.40;99.90;;;;;;5114014;28;20065;-58
2022/04/01 08:23:54;;;;;;;8.35;5.47;;;3.40;99.90;;;;;;5113565;28;20028;-59
2022/04/01 08:26:19;;;;;;;8.38;5.90;;;3.40;99.90;;;;;;5111071;28;20032;-60
2022/04/01 08:28:45;;;;;;;10.43;5.68;;;3.40;99.90;;;;;;5114302;28;20115;-58
2022/04/01 08:31:10;;;;;;;9.60;5.45;;;3.30;99.90;;;;;;5113178;28;20024;-57
2022/04/01 08:33:37;;;;;;;9.65;5.85;;;3.40;99.90;;;;;;5113026;28;20073;-59
2022/04/01 08:36:04;;;;;;;6.95;5.20;;;3.40;99.90;;;;;;5110434;28;20030;-57
2022/04/01 08:38:30;;;;;;;10.50;4.82;;;3.40;99.90;;;;;;5112871;28;20020;-59
2022/04/01 08:40:55;;;;;;;8.50;5.93;;;3.40;99.90;;;;;;5114050;28;20477;-58
2022/04/01 08:43:34;;;;;;;7.25;5.15;;;3.40;99.90;;;;;;5113632;28;20024;-56
2022/04/01 08:46:03;;;;;;;6.38;4.93;;;3.50;99.90;;;;;;5112073;28;20372;-58
2022/04/01 08:48:30;;;;;;;10.32;5.35;;;3.50;99.90;;;;;;5112961;28;20442;-55
2022/04/01 08:50:55;;;;;;;8.73;5.10;;;3.50;99.90;;;;;;5112886;28;20071;-58
2022/04/01 08:53:22;;;;;;;8.25;5.75;;;3.50;99.90;;;;;;5113661;28;20054;-57
2022/04/01 08:55:51;;;;;;;6.63;5.05;;;3.50;99.90;;;;;;5113372;28;20457;-59
2022/04/01 08:58:19;;;;;;;8.38;5.82;;;3.50;99.90;;;;;;5113396;28;20028;-53
2022/04/01 09:00:49;;;;;;;9.05;5.75;;;3.50;99.90;;;;;;5113006;28;20046;-57
2022/04/01 09:03:16;;;;;;;7.18;5.63;;;3.50;99.90;;;;;;5110411;28;20088;-60
2022/04/01 09:05:50;;;;;;;9.95;5.78;;;3.60;99.90;;;;;;5108994;28;20024;-58
2022/04/01 09:08:23;;;;;;;10.32;6.07;;;3.60;99.90;;;;;;5106927;28;20119;-59
2022/04/01 09:11:01;;;;;;;9.80;5.97;;;3.60;99.90;;;;;;5112570;28;20047;-57
2022/04/01 09:13:29;;;;;;;7.90;5.53;;;3.60;99.90;;;;;;5112717;28;20043;-59
2022/04/01 09:15:55;;;;;;;7.35;5.15;;;3.60;99.90;;;;;;5112776;28;20031;-58
2022/04/01 09:18:39;;;;;;;8.98;5.97;;;3.50;99.90;;;;;;5112064;28;20024;-59
2022/04/01 09:21:10;;;;;;;5.40;4.45;;;3.50;99.90;;;;;;5110555;28;20019;-56
2022/04/01 09:23:36;;;;;;;8.15;5.65;;;3.50;99.90;;;;;;5108227;28;20028;-55
2022/04/01 09:26:03;;;;;;;7.40;5.43;;;3.40;99.90;;;;;;5110746;28;20032;-59
2022/04/01 09:28:31;;;;;;;9.88;6.95;;;3.40;99.90;;;;;;5112379;28;20094;-55
2022/04/01 09:31:00;;;;;;;10.80;7.25;;;3.40;99.90;;;;;;5112481;28;20775;-56
2022/04/01 09:33:33;;;;;;;7.75;5.80;;;3.50;99.90;;;;;;5112177;28;20554;-59
2022/04/01 09:36:06;;;;;;;12.77;6.70;;;3.40;99.90;;;;;;5110910;28;20028;-58
2022/04/01 09:38:32;;;;;;;12.00;6.30;;;3.40;99.90;;;;;;5112074;28;20516;-57
2022/04/01 09:41:02;;;;;;;8.05;6.22;;;3.40;99.90;;;;;;5112771;28;20024;-57
2022/04/01 09:43:28;;;;;;;10.00;6.85;;;3.30;99.90;;;;;;5111826;28;20026;-56
2022/04/01 09:45:53;;;;;;;9.52;6.28;;;3.30;99.90;;;;;;5112752;28;20111;-56
2022/04/01 09:48:20;;;;;;;7.82;6.00;;;3.30;99.90;;;;;;5111862;28;20032;-59
2022/04/01 09:50:59;;;;;;;10.82;5.93;;;3.30;99.90;;;;;;5106767;28;20467;-58
2022/04/01 09:53:26;;;;;;;13.50;5.60;;;3.20;99.90;;;;;;5111908;28;20530;-58
2022/04/01 09:55:52;;;;;;;11.60;6.25;;;3.20;99.90;;;;;;5112154;28;20027;-56
2022/04/01 09:58:21;;;;;;;12.45;6.90;;;3.30;99.90;;;;;;5112298;28;20019;-58
2022/04/01 10:00:47;;;;;;;11.82;7.30;;;3.30;99.90;;;;;;5112103;28;20051;-58
2022/04/01 10:03:15;;;;;;;11.52;6.97;;;3.30;99.90;;;;;;5112762;28;20032;-57
2022/04/01 10:05:42;;;;;;;10.25;5.50;;;3.40;99.90;;;;;;5111223;28;20065;-57
2022/04/01 10:08:09;;;;;;;8.77;6.03;;;3.40;99.90;;;;;;5111645;28;20028;-57
2022/04/01 10:10:36;;;;;;;9.30;5.72;;;3.40;99.90;;;;;;5111898;28;20041;-59
2022/04/01 10:13:21;;;;;;;9.02;6.38;;;3.40;99.90;;;;;;5111793;28;20024;-58
2022/04/01 10:15:47;;;;;;;6.25;5.10;;;3.30;99.90;;;;;;5112020;28;20135;-57
2022/04/01 10:18:15;;;;;;;7.28;5.40;;;3.30;99.90;;;;;;5111583;28;20664;-58
2022/04/01 10:20:40;;;;;;;11.05;5.65;;;3.20;99.90;;;;;;5108166;28;20425;-58
2022/04/01 10:23:11;;;;;;;8.00;5.75;;;3.20;99.90;;;;;;5111652;28;20020;-57
2022/04/01 10:25:47;;;;;;;9.90;5.43;;;3.20;99.90;;;;;;5111752;28;20156;-58
2022/04/01 10:28:14;;;;;;;8.00;5.45;;;3.20;99.90;;;;;;5106030;28;20046;-57
2022/04/01 10:30:40;;;;;;;7.13;5.32;;;3.20;99.90;;;;;;5111768;28;20023;-58
2022/04/01 10:33:07;;;;;;;8.93;5.78;;;3.20;99.90;;;;;;5109518;28;20067;-58
2022/04/01 10:35:38;;;;;;;9.50;5.75;;;3.20;99.90;;;;;;5110028;28;20038;-56
2022/04/01 10:38:06;;;;;;;10.90;6.55;;;3.30;99.90;;;;;;5111733;28;20056;-57
2022/04/01 10:40:38;;;;;;;7.57;5.13;;;3.30;99.90;;;;;;5110994;28;20023;-55
2022/04/01 10:43:27;;;;;;;6.68;5.15;;;3.30;99.90;;;;;;5111109;28;20514;-57
2022/04/01 10:46:00;;;;;;;9.90;5.57;;;3.30;99.90;;;;;;5111339;28;20035;-59
2022/04/01 10:53:54;;;;;;;9.35;4.65;;;3.40;99.90;;;;;;5110113;28;20034;-58
2022/04/01 10:56:25;;;;;;;9.10;5.95;;;3.40;99.90;;;;;;5111080;28;20404;-56
2022/04/01 10:59:19;;;;;;;7.40;4.65;;;3.50;99.90;;;;;;5104617;28;20033;-59
2022/04/01 11:01:53;;;;;;;8.55;4.97;;;3.70;99.90;;;;;;5110970;28;20049;-58
2022/04/01 11:04:19;;;;;;;8.52;5.10;;;3.80;99.90;;;;;;5109872;28;20100;-57
2022/04/01 11:07:17;;;;;;;9.48;4.82;;;3.80;99.90;;;;;;5111224;28;20062;-59
2022/04/01 11:09:51;;;;;;;7.20;4.95;;;3.90;99.90;;;;;;5110771;28;20389;-55
2022/04/01 11:12:21;;;;;;;12.27;5.40;;;3.90;99.90;;;;;;5110634;28;20084;-59
2022/04/01 11:15:16;;;;;;;6.72;4.80;;;3.90;99.90;;;;;;5110143;28;20076;-58
2022/04/01 11:17:44;;;;;;;6.78;4.72;;;3.90;99.90;;;;;;5104359;28;20043;-57
2022/04/01 11:20:10;;;;;;;5.68;4.63;;;3.90;99.90;;;;;;5109654;28;20497;-57
2022/04/01 11:22:46;;;;;;;6.07;4.50;;;3.80;99.90;;;;;;5110651;28;20058;-57
2022/04/01 11:25:13;;;;;;;6.68;4.70;;;3.90;99.90;;;;;;5110119;28;20046;-59
2022/04/01 11:28:03;;;;;;;8.50;4.93;;;3.90;99.90;;;;;;5110299;28;20023;-54
2022/04/01 11:30:31;;;;;;;8.63;4.57;;;3.90;99.90;;;;;;5110570;28;20020;-56
2022/04/01 11:32:59;;;;;;;7.53;4.80;;;3.90;99.90;;;;;;5107347;28;20062;-56
2022/04/01 11:35:27;;;;;;;9.65;4.55;;;3.90;99.90;;;;;;5109914;28;20877;-56
2022/04/01 11:37:53;;;;;;;9.20;5.00;;;3.90;99.90;;;;;;5110396;28;20114;-59
2022/04/01 11:40:22;;;;;;;7.22;4.75;;;3.90;99.90;;;;;;5110075;28;20095;-59
2022/04/01 11:43:02;;;;;;;6.80;4.70;;;4.00;99.90;;;;;;5110576;28;20440;-59
2022/04/01 11:45:36;;;;;;;8.00;4.38;;;4.00;99.90;;;;;;5091968;28;20027;-58
2022/04/01 11:50:31;;;;;;;6.45;3.90;;;3.90;99.90;;;;;;5087456;28;20078;-63
2022/04/01 11:52:57;;;;;;;4.60;3.83;;;3.70;99.90;;;;;;5089195;28;20516;-62
2022/04/01 11:55:25;;;;;;;8.15;4.32;;;3.80;99.90;;;;;;5089454;28;20082;-62
2022/04/01 11:57:56;;;;;;;5.72;4.15;;;3.90;99.90;;;;;;5089311;28;20074;-63
2022/04/01 12:00:25;;;;;;;5.07;3.88;;;3.80;99.90;;;;;;5068619;28;20035;-62
2022/04/01 12:02:52;;;;;;;4.53;3.40;;;3.80;99.90;;;;;;5068371;28;20095;-64
2022/04/01 12:05:19;;;;;;;7.72;3.67;;;3.90;99.90;;;;;;5068847;28;20029;-63
2022/04/01 12:10:40;;;;;;;7.60;3.33;;;3.80;99.90;;;;;;5069252;28;20040;-62
2022/04/01 12:13:08;;;;;;;5.03;3.22;;;3.80;99.90;;;;;;5068780;28;20040;-63
2022/04/01 12:15:38;;;;;;;8.77;3.67;;;3.80;99.90;;;;;;5068783;28;20442;-63
2022/04/01 12:18:06;;;;;;;6.68;3.97;;;3.80;99.90;;;;;;5068793;28;20048;-63
2022/04/01 12:20:37;;;;;;;7.25;3.83;;;3.70;99.90;;;;;;5069111;28;20012;-63
2022/04/01 12:23:02;;;;;;;8.85;4.10;;;3.70;99.90;;;;;;5069586;28;20111;-64
2022/04/01 12:25:30;;;;;;;6.72;4.68;;;3.60;99.90;;;;;;5068957;28;20100;-61
2022/04/01 12:27:58;;;;;;;7.22;4.25;;;3.60;99.90;;;;;;5068897;28;20067;-63
2022/04/01 12:30:44;;;;;;;6.45;4.10;;;3.50;99.90;;;;;;5068686;28;20319;-64
2022/04/01 12:33:24;;;;;;;7.95;4.30;;;3.40;99.90;;;;;;5068442;28;20035;-61
2022/04/01 12:36:03;;;;;;;6.30;4.35;;;3.30;99.90;;;;;;5054838;28;20024;-62
2022/04/01 12:38:34;;;;;;;7.07;4.03;;;3.30;99.90;;;;;;5069249;28;20017;-63
2022/04/01 12:41:20;;;;;;;8.35;4.55;;;3.30;99.90;;;;;;5068580;28;20025;-65
2022/04/01 12:43:49;;;;;;;7.65;4.30;;;3.40;99.90;;;;;;5068968;28;20082;-62
2022/04/01 12:46:16;;;;;;;6.53;4.25;;;3.50;99.90;;;;;;5071739;28;20039;-65
2022/04/01 12:48:45;;;;;;;5.88;3.85;;;3.50;99.90;;;;;;5065874;28;20040;-66
2022/04/01 12:51:20;;;;;;;6.35;4.47;;;3.60;99.90;;;;;;5072457;28;20355;-65
2022/04/01 12:54:08;;;;;;;10.15;4.35;;;3.80;99.90;;;;;;5071960;28;20029;-64
2022/04/01 12:56:35;;;;;;;8.85;4.53;;;3.90;99.90;;;;;;5068926;28;20367;-65
2022/04/01 12:59:14;;;;;;;7.07;3.75;;;3.90;99.90;;;;;;5072016;28;20036;-64
2022/04/01 13:01:43;;;;;;;9.95;4.40;;;4.00;99.90;;;;;;5070359;28;20394;-65
2022/04/01 13:04:16;;;;;;;6.65;4.45;;;3.90;99.90;;;;;;5071691;28;20424;-64
2022/04/01 13:06:42;;;;;;;6.67;4.57;;;3.80;99.90;;;;;;5072355;28;20632;-64
2022/04/01 13:09:10;;;;;;;5.03;3.80;;;3.80;99.90;;;;;;5070120;28;20020;-64
2022/04/01 13:11:38;;;;;;;6.03;4.03;;;3.80;99.90;;;;;;5064164;28;20623;-65
2022/04/01 13:14:05;;;;;;;11.32;4.05;;;3.80;99.90;;;;;;5054618;28;20028;-64
2022/04/01 13:16:39;;;;;;;6.78;4.05;;;3.90;99.90;;;;;;5071044;28;20031;-64